createdAt,value
2017-10-24T00:02:34.593Z,78.61
2017-10-24T00:17:37.506Z,79.10
2017-10-24T00:32:34.894Z,78.89
2017-10-24T00:47:34.886Z,78.57
2017-10-24T01:02:34.869Z,78.96
2017-10-24T01:17:34.816Z,78.44
2017-10-24T01:32:34.834Z,78.34
2017-10-24T01:47:38.364Z,78.12
2017-10-24T02:02:34.689Z,78.22
2017-10-24T02:17:38.132Z,78.34
2017-10-24T02:32:37.633Z,77.64
2017-10-24T02:47:34.596Z,77.56
2017-10-24T03:02:46.103Z,77.42
2017-10-24T03:17:35.370Z,77.28
2017-10-24T03:32:35.189Z,77.03
2017-10-24T03:47:38.193Z,76.18
2017-10-24T04:02:35.165Z,75.86
2017-10-24T04:17:35.383Z,75.75
2017-10-24T04:32:35.030Z,75.92
2017-10-24T04:47:36.941Z,75.75
2017-10-24T05:02:36.832Z,75.88
2017-10-24T05:17:36.758Z,75.39
2017-10-24T05:32:35.250Z,75.05
2017-10-24T05:47:36.181Z,74.83
2017-10-24T06:02:35.065Z,73.67
2017-10-24T06:17:35.145Z,73.62
2017-10-24T06:32:36.481Z,73.45
2017-10-24T06:47:34.917Z,73.89
2017-10-24T07:02:34.378Z,74.38
2017-10-24T07:17:34.327Z,74.64
2017-10-24T07:32:36.770Z,74.48
2017-10-24T07:47:34.820Z,74.66
2017-10-24T08:02:36.735Z,74.76
2017-10-24T08:17:37.596Z,74.86
2017-10-24T08:32:35.047Z,75.48
2017-10-24T08:47:35.014Z,74.92
2017-10-24T09:02:34.958Z,73.93
2017-10-24T09:17:41.866Z,73.59
2017-10-24T09:32:36.807Z,72.90
2017-10-24T09:47:33.798Z,61.34
2017-10-24T10:02:34.480Z,64.30
2017-10-24T10:17:33.823Z,66.43
2017-10-24T10:32:34.657Z,68.15
2017-10-24T10:47:34.680Z,69.67
2017-10-24T11:02:34.554Z,70.36
2017-10-24T11:17:34.477Z,70.93
2017-10-24T11:32:35.460Z,70.61
2017-10-24T11:47:36.911Z,70.93
2017-10-24T12:02:34.836Z,71.37
2017-10-24T12:17:34.715Z,71.76
2017-10-24T12:32:35.278Z,72.34
2017-10-24T12:47:35.147Z,72.41
2017-10-24T13:02:35.136Z,72.43
2017-10-24T13:17:37.046Z,73.94
2017-10-24T13:32:36.553Z,74.11
2017-10-24T13:47:33.949Z,75.19
2017-10-24T14:02:34.382Z,75.97
2017-10-24T14:17:37.385Z,76.12
2017-10-24T14:32:35.810Z,76.16
2017-10-24T14:47:37.806Z,76.53
2017-10-24T15:02:34.654Z,76.68
2017-10-24T15:17:34.655Z,76.53
2017-10-24T15:32:38.094Z,76.70
2017-10-24T15:47:35.069Z,77.46
2017-10-24T16:02:35.980Z,77.55
2017-10-24T16:17:37.682Z,77.68
2017-10-24T16:32:34.335Z,77.48
2017-10-24T16:47:33.814Z,77.73
2017-10-24T17:02:37.574Z,77.70
2017-10-24T17:17:37.213Z,77.84
2017-10-24T17:32:36.628Z,77.68
2017-10-24T17:47:42.021Z,77.73
2017-10-24T18:02:34.599Z,77.69
2017-10-24T18:17:34.595Z,77.67
2017-10-24T18:32:34.970Z,78.33
2017-10-24T18:47:34.892Z,78.78
2017-10-24T19:02:34.847Z,78.49
2017-10-24T19:17:36.775Z,78.45
2017-10-24T19:32:36.227Z,78.79
2017-10-24T19:47:35.129Z,78.53
2017-10-24T20:02:35.164Z,78.61
2017-10-24T20:17:36.003Z,78.76
2017-10-24T20:32:34.562Z,78.42
2017-10-24T20:47:34.488Z,78.13
2017-10-24T21:02:34.447Z,78.26
2017-10-24T21:17:34.338Z,77.73
2017-10-24T21:32:34.775Z,77.60
2017-10-24T21:47:36.726Z,77.54
2017-10-24T22:02:36.649Z,77.50
2017-10-24T22:17:34.659Z,77.49
2017-10-24T22:32:35.067Z,77.32
2017-10-24T22:47:35.027Z,77.50
2017-10-24T23:02:35.807Z,77.29
2017-10-24T23:17:34.924Z,77.44
2017-10-24T23:32:34.420Z,77.47
2017-10-24T23:47:34.271Z,77.02
